KMCF

Macdill AFB Airport

Tampa, Florida, USA
METAR KMCF 231056Z AUTO 11005KT 10SM CLR 22/21 A3008 RMK AO2 SLP189 T02180209 FZRANO $
Observed Flight Rules
May-23 @ 10:56 UTC (20 minutes ago) Visual Flight Rules
Wind Visibility Clouds
110° at 5 knots 10 miles
  • Clear skies
Temperatures Readings
Current 22°C / 72°F
Dewpoint 21°C / 70°F
Humidity 94%
Altimeter 30.08" Hg
Pressure 1018.9 hPa
Elevation 4
METAR KMCF 231056Z AUTO 11005KT 10SM CLR 22/21 A3008 RMK AO2 SLP189 T02180209 FZRANO $
Observed Flight Rules
May-23 @ 10:56 UTC
(20 minutes ago)
VFR
Wind Visibility
110° at 5 knots 10 miles
Clouds
  • Clear skies
Temperature Dewpoint
22°C / 72°F 21°C / 70°F
Humidity Altimeter Pressure
94% 30.08" Hg 1018.9 hPa